Accueil
METAR-TAF:

METAR-TAF

Aéroports :

Aéroport de Londres-Southend

Londres-Southend, Angleterre

latitude: 51-34N, longitude: 000-42E, altitude: 15 m

Observation

Le bulletin a été fait il y a 1 heure et 11 minutes, à 03:50 UTC
Vent 3 kt de ouest/nord-ouest
Température 11°C
Humidité 82%
Pression 1027 hPa
Visibilité 10 km ou plus
pas de nuages en-dessous de 1500 mètres et pas de cumulonimbus.

METAR: EGMC 060350Z 30003KT CAVOK 11/08 Q1027

Heure: 06:01 (05:01 UTC)

Prévision

Le bulletin a été fait il y a 3 heures et 3 minutes, à 01:58 UTC
Prévision valable du 06 à 03 UTC au 06 à 12 UTC
Vent 6 kt de ouest/nord-ouest
Visibilité 10 km ou plus
Nuages épars à une hauteur de 4500 ft

TAF: EGMC 060158Z 0603/0612 30006KT 9999 SCT045

Observations et prévisions météorologiques de plus de 4000 aéroports (messages METAR et TAF).

Les stations disponibles sont représentées par des disques jaunes et rouges sur la carte.

Passer la souris dessus pour voir le nom de la station.

Cliquer dessus pour voir les observations et prévisions météorologiques.

Pour changer de carte: cliquez sur les boutons verts avec une croix noire pour zoomer, sur le bouton vert avec un tiret pour effectuer un zoom arrière, ou sur les flèches vertes pour les cartes adjacentes.


METAR-TAF: